createdAt,value
2024-02-07T00:00:11.819Z,8.20
2024-02-07T00:02:40.106Z,8.10
2024-02-07T00:05:08.717Z,8.10
2024-02-07T00:07:39.218Z,8.10
2024-02-07T00:10:08.568Z,8.20
2024-02-07T00:12:36.592Z,8.20
2024-02-07T00:15:05.783Z,8.20
2024-02-07T00:17:33.802Z,8.20
2024-02-07T00:20:01.778Z,8.20
2024-02-07T00:22:29.720Z,8.20
2024-02-07T00:24:58.939Z,8.20
2024-02-07T00:27:26.771Z,8.20
2024-02-07T00:29:54.756Z,8.10
2024-02-07T00:32:22.604Z,8.00
2024-02-07T00:34:50.561Z,8.00
2024-02-07T00:37:18.673Z,8.00
2024-02-07T00:39:46.679Z,7.90
2024-02-07T00:42:15.891Z,7.80
2024-02-07T00:44:43.746Z,7.70
2024-02-07T00:47:12.187Z,7.70
2024-02-07T00:49:40.270Z,7.70
2024-02-07T00:52:08.429Z,7.80
2024-02-07T00:54:36.410Z,7.90
2024-02-07T00:57:04.486Z,7.90
2024-02-07T00:59:33.676Z,7.90
2024-02-07T01:02:02.099Z,7.90
2024-02-07T01:04:30.051Z,7.90
2024-02-07T01:06:58.196Z,8.00
2024-02-07T01:09:27.786Z,8.00
2024-02-07T01:11:58.535Z,8.00
2024-02-07T01:14:27.716Z,8.00
2024-02-07T01:16:56.963Z,8.00
2024-02-07T01:19:25.534Z,8.10
2024-02-07T01:21:53.512Z,8.00
2024-02-07T01:24:21.494Z,8.00
2024-02-07T01:26:49.441Z,8.10
2024-02-07T01:29:17.324Z,8.00
2024-02-07T01:31:45.787Z,7.90
2024-02-07T01:34:15.608Z,8.00
2024-02-07T01:36:47.307Z,7.90
2024-02-07T01:39:17.357Z,7.90
2024-02-07T01:42:01.358Z,8.00
2024-02-07T01:44:30.815Z,7.90
2024-02-07T01:47:16.087Z,7.80
2024-02-07T01:49:49.468Z,7.80
2024-02-07T01:52:19.977Z,7.80
2024-02-07T01:54:48.072Z,7.80
2024-02-07T01:57:16.114Z,7.80
2024-02-07T01:59:44.223Z,7.80
2024-02-07T02:02:12.360Z,7.80
2024-02-07T02:04:41.506Z,7.80
2024-02-07T02:07:10.905Z,7.90
2024-02-07T02:09:40.313Z,7.90
2024-02-07T02:12:10.072Z,7.90
2024-02-07T02:14:37.960Z,7.90
2024-02-07T02:17:06.277Z,7.90
2024-02-07T02:19:34.348Z,7.90
2024-02-07T02:22:23.707Z,7.90
2024-02-07T02:25:08.916Z,7.90
2024-02-07T02:27:52.362Z,7.90
2024-02-07T02:30:34.466Z,8.00
2024-02-07T02:33:09.982Z,8.00
2024-02-07T02:35:40.841Z,7.90
2024-02-07T02:38:08.905Z,7.80
2024-02-07T02:40:36.865Z,7.80
2024-02-07T02:43:05.219Z,7.80
2024-02-07T02:45:34.443Z,7.70
2024-02-07T02:48:02.453Z,7.80
2024-02-07T02:50:31.723Z,7.80
2024-02-07T02:53:00.257Z,7.80
2024-02-07T02:55:31.615Z,7.70
2024-02-07T02:58:01.847Z,7.80
2024-02-07T03:00:31.426Z,7.80
2024-02-07T03:03:00.969Z,7.90
2024-02-07T03:05:46.487Z,7.90
2024-02-07T03:08:22.757Z,7.80
2024-02-07T03:10:54.846Z,7.90
2024-02-07T03:13:23.666Z,7.90
2024-02-07T03:15:51.519Z,7.90
2024-02-07T03:18:21.887Z,7.90
2024-02-07T03:20:50.486Z,7.90
2024-02-07T03:23:19.871Z,8.00
2024-02-07T03:25:48.210Z,8.00
2024-02-07T03:28:17.700Z,8.00
2024-02-07T03:30:45.963Z,8.00
2024-02-07T03:33:14.123Z,8.10
2024-02-07T03:35:44.455Z,8.20
2024-02-07T03:38:13.066Z,8.30
2024-02-07T03:40:41.108Z,8.30
2024-02-07T03:43:10.243Z,8.30
2024-02-07T03:45:38.648Z,8.30
2024-02-07T03:48:13.427Z,8.30
2024-02-07T03:50:42.853Z,8.30
2024-02-07T03:53:11.700Z,8.40
2024-02-07T03:55:40.122Z,8.30
2024-02-07T03:58:08.496Z,8.30
2024-02-07T04:00:36.629Z,8.30
2024-02-07T04:03:05.002Z,8.40
2024-02-07T04:05:38.945Z,8.30
2024-02-07T04:08:09.509Z,8.30
2024-02-07T04:10:43.536Z,8.40
2024-02-07T04:13:11.359Z,8.40
2024-02-07T04:15:57.208Z,8.40
2024-02-07T04:18:42.930Z,8.40
2024-02-07T04:21:29.726Z,8.40
2024-02-07T04:24:16.636Z,8.40
2024-02-07T04:27:02.393Z,8.50
2024-02-07T04:29:47.950Z,8.50
2024-02-07T04:32:33.532Z,8.60
2024-02-07T04:35:18.931Z,8.60
2024-02-07T04:38:04.460Z,8.60
2024-02-07T04:40:51.624Z,8.50
2024-02-07T04:43:37.371Z,8.50
2024-02-07T04:46:22.919Z,8.40
2024-02-07T04:49:08.493Z,8.30
2024-02-07T04:51:54.129Z,8.30
2024-02-07T04:54:39.690Z,8.30
2024-02-07T04:57:26.505Z,8.40
2024-02-07T05:00:12.165Z,8.40
2024-02-07T05:02:57.906Z,8.50
2024-02-07T05:05:43.559Z,8.50
2024-02-07T05:08:29.194Z,8.60
2024-02-07T05:11:14.700Z,8.70
2024-02-07T05:14:01.626Z,8.90
2024-02-07T05:16:30.523Z,8.90
2024-02-07T05:18:58.504Z,8.90
2024-02-07T05:21:26.404Z,8.90
2024-02-07T05:23:54.300Z,8.90
2024-02-07T05:26:22.982Z,8.90
2024-02-07T05:28:52.248Z,9.00
2024-02-07T05:31:20.426Z,8.90
2024-02-07T05:33:48.470Z,9.00
2024-02-07T05:36:16.415Z,8.90
2024-02-07T05:38:44.451Z,8.90
2024-02-07T05:41:12.367Z,8.90
2024-02-07T05:43:40.444Z,9.00
2024-02-07T05:46:09.724Z,9.00
2024-02-07T05:48:40.448Z,8.90
2024-02-07T05:51:08.340Z,9.00
2024-02-07T05:53:36.270Z,9.00
2024-02-07T05:56:09.689Z,9.00
2024-02-07T05:58:41.001Z,9.00
2024-02-07T06:01:11.697Z,8.90
2024-02-07T06:03:39.762Z,8.90
2024-02-07T06:06:08.268Z,8.90
2024-02-07T06:08:36.895Z,8.90
2024-02-07T06:11:06.677Z,8.80
2024-02-07T06:13:34.621Z,8.80
2024-02-07T06:16:02.492Z,8.80
2024-02-07T06:18:31.891Z,8.80
2024-02-07T06:20:59.954Z,8.90
2024-02-07T06:23:27.943Z,8.80
2024-02-07T06:25:55.897Z,8.80
2024-02-07T06:28:23.940Z,8.80
2024-02-07T06:30:51.839Z,8.80
2024-02-07T06:33:19.946Z,8.80
2024-02-07T06:35:49.468Z,8.90
2024-02-07T06:38:17.392Z,8.80
2024-02-07T06:40:45.485Z,8.80
2024-02-07T06:43:13.534Z,8.90
2024-02-07T06:45:41.602Z,8.90
2024-02-07T06:48:09.806Z,8.90
2024-02-07T06:50:37.737Z,8.90
2024-02-07T06:53:07.512Z,9.00
2024-02-07T06:55:35.985Z,9.00
2024-02-07T06:58:04.047Z,9.00
2024-02-07T07:00:32.375Z,9.10
2024-02-07T07:03:00.258Z,9.00
2024-02-07T07:05:28.102Z,9.10
2024-02-07T07:07:56.065Z,9.10
2024-02-07T07:10:25.252Z,9.20
2024-02-07T07:12:53.239Z,9.20
2024-02-07T07:15:30.313Z,9.30
2024-02-07T07:18:01.867Z,9.30
2024-02-07T07:20:32.173Z,9.30
2024-02-07T07:23:11.900Z,9.40
2024-02-07T07:25:45.857Z,9.40
2024-02-07T07:28:14.102Z,9.40
2024-02-07T07:30:42.317Z,9.40
2024-02-07T07:33:10.426Z,9.40
2024-02-07T07:35:37.635Z,9.40
2024-02-07T07:38:06.159Z,9.40
2024-02-07T07:40:34.386Z,9.40
2024-02-07T07:43:03.650Z,9.50
2024-02-07T07:45:31.519Z,9.50
2024-02-07T07:47:59.476Z,9.60
2024-02-07T07:50:27.707Z,9.50
2024-02-07T07:52:55.705Z,9.60
2024-02-07T07:55:23.633Z,9.60
2024-02-07T07:57:51.504Z,9.70
2024-02-07T08:00:21.182Z,9.70
2024-02-07T08:02:48.999Z,9.80
2024-02-07T08:05:16.980Z,9.80
2024-02-07T08:07:45.129Z,9.80
2024-02-07T08:10:13.303Z,9.80
2024-02-07T08:12:42.358Z,9.90
2024-02-07T08:15:11.141Z,9.90
2024-02-07T08:17:40.453Z,9.90
2024-02-07T08:20:11.382Z,9.90
2024-02-07T08:22:40.112Z,9.90
2024-02-07T08:25:18.049Z,9.90
2024-02-07T08:27:45.996Z,9.90
2024-02-07T08:30:17.365Z,10.00
2024-02-07T08:32:46.881Z,10.00
2024-02-07T08:35:22.541Z,10.10
2024-02-07T08:37:50.625Z,10.10
2024-02-07T08:40:20.922Z,10.10
2024-02-07T08:42:48.883Z,10.10
2024-02-07T08:45:21.118Z,10.20
2024-02-07T08:47:50.683Z,10.20
2024-02-07T08:50:22.488Z,10.20
2024-02-07T08:52:50.464Z,10.30
2024-02-07T08:55:18.473Z,10.30
2024-02-07T08:57:46.459Z,10.30
2024-02-07T09:00:15.399Z,10.30
2024-02-07T09:02:43.359Z,10.40
2024-02-07T09:05:13.317Z,10.30
2024-02-07T09:07:41.344Z,10.30
2024-02-07T09:10:10.925Z,10.30
2024-02-07T09:12:38.828Z,10.30
2024-02-07T09:15:07.591Z,10.40
2024-02-07T09:17:35.591Z,10.50
2024-02-07T09:20:03.923Z,10.50
2024-02-07T09:22:33.259Z,10.60
2024-02-07T09:25:01.375Z,10.60
2024-02-07T09:27:30.657Z,10.70
2024-02-07T09:30:07.460Z,10.80
2024-02-07T09:32:41.716Z,10.80
2024-02-07T09:35:10.537Z,10.80
2024-02-07T09:37:42.614Z,10.80
2024-02-07T09:40:12.162Z,10.80
2024-02-07T09:42:45.686Z,10.80
2024-02-07T09:45:14.999Z,10.80
2024-02-07T09:47:50.363Z,10.70
2024-02-07T09:50:19.485Z,10.70
2024-02-07T09:52:50.202Z,10.70
2024-02-07T09:55:18.488Z,10.80
2024-02-07T09:57:47.250Z,10.90
2024-02-07T10:00:15.961Z,10.90
2024-02-07T10:02:49.974Z,10.90
2024-02-07T10:05:20.593Z,10.90
2024-02-07T10:07:53.763Z,11.00
2024-02-07T10:10:22.861Z,11.00
2024-02-07T10:12:55.384Z,11.20
2024-02-07T10:15:25.438Z,11.20
2024-02-07T10:17:53.731Z,11.40
2024-02-07T10:20:21.869Z,11.50
2024-02-07T10:22:51.597Z,11.70
2024-02-07T10:25:19.586Z,11.90
2024-02-07T10:27:47.506Z,11.90
2024-02-07T10:30:15.679Z,11.90
2024-02-07T10:32:46.575Z,11.90
2024-02-07T10:35:19.262Z,11.80
2024-02-07T10:37:54.041Z,11.60
2024-02-07T10:40:22.556Z,11.50
2024-02-07T10:43:01.030Z,11.50
2024-02-07T10:45:28.979Z,11.50
2024-02-07T10:47:59.012Z,11.50
2024-02-07T10:50:28.413Z,11.50
2024-02-07T10:53:00.712Z,11.50
2024-02-07T10:55:28.686Z,11.50
2024-02-07T10:58:02.251Z,11.50
2024-02-07T11:00:30.571Z,11.50
2024-02-07T11:03:03.202Z,11.50
2024-02-07T11:05:31.397Z,11.50
2024-02-07T11:08:05.431Z,11.60
2024-02-07T11:10:35.256Z,11.70
2024-02-07T11:13:07.073Z,11.70
2024-02-07T11:15:35.758Z,11.70
2024-02-07T11:18:09.198Z,11.70
2024-02-07T11:20:37.961Z,11.90
2024-02-07T11:23:17.242Z,11.90
2024-02-07T11:25:47.452Z,12.10
2024-02-07T11:28:15.661Z,12.10
2024-02-07T11:30:45.572Z,12.00
2024-02-07T11:33:13.841Z,12.00
2024-02-07T11:35:41.923Z,12.00
2024-02-07T11:38:12.084Z,12.00
2024-02-07T11:40:41.341Z,11.90
2024-02-07T11:43:11.564Z,12.00
2024-02-07T11:45:39.890Z,12.00
2024-02-07T11:48:20.669Z,12.00
2024-02-07T11:50:51.222Z,12.00
2024-02-07T11:53:26.688Z,12.00
2024-02-07T11:55:54.701Z,12.10
2024-02-07T11:58:24.329Z,12.00
2024-02-07T12:00:52.806Z,12.00
2024-02-07T12:03:20.827Z,12.00
2024-02-07T12:05:48.853Z,12.10
2024-02-07T12:08:17.313Z,12.30
2024-02-07T12:10:46.690Z,12.50
2024-02-07T12:13:14.690Z,12.40
2024-02-07T12:15:43.114Z,12.50
2024-02-07T12:18:11.025Z,12.60
2024-02-07T12:20:39.465Z,12.70
2024-02-07T12:23:07.903Z,12.60
2024-02-07T12:25:36.017Z,12.60
2024-02-07T12:28:18.706Z,12.50
2024-02-07T12:30:46.640Z,12.40
2024-02-07T12:33:14.751Z,12.20
2024-02-07T12:35:50.587Z,12.10
2024-02-07T12:38:18.670Z,12.10
2024-02-07T12:40:48.579Z,12.20
2024-02-07T12:43:19.624Z,12.30
2024-02-07T12:45:57.481Z,12.20
2024-02-07T12:48:26.348Z,12.20
2024-02-07T12:50:55.466Z,12.10
2024-02-07T12:53:23.785Z,12.00
2024-02-07T12:55:53.796Z,12.00
2024-02-07T12:58:23.275Z,12.00
2024-02-07T13:01:01.932Z,12.10
2024-02-07T13:03:40.552Z,12.20
2024-02-07T13:06:08.565Z,12.20
2024-02-07T13:08:36.510Z,12.20
2024-02-07T13:11:04.653Z,12.10
2024-02-07T13:13:34.074Z,11.90
2024-02-07T13:16:02.140Z,11.90
2024-02-07T13:18:30.251Z,11.90
2024-02-07T13:21:03.020Z,11.90
2024-02-07T13:23:34.490Z,11.80
2024-02-07T13:26:05.833Z,11.70
2024-02-07T13:28:37.392Z,11.60
2024-02-07T13:31:05.917Z,11.50
2024-02-07T13:33:33.865Z,11.50
2024-02-07T13:36:01.777Z,11.60
2024-02-07T13:38:34.669Z,11.50
2024-02-07T13:41:05.990Z,11.60
2024-02-07T13:43:35.432Z,11.40
2024-02-07T13:46:03.577Z,11.40
2024-02-07T13:48:31.619Z,11.40
2024-02-07T13:51:00.775Z,11.50
2024-02-07T13:53:29.366Z,11.60
2024-02-07T13:55:58.352Z,11.60
2024-02-07T13:58:27.152Z,11.50
2024-02-07T14:00:56.969Z,11.50
2024-02-07T14:03:25.050Z,11.60
2024-02-07T14:05:54.418Z,11.60
2024-02-07T14:08:22.500Z,11.60
2024-02-07T14:10:50.853Z,11.70
2024-02-07T14:13:18.962Z,11.70
2024-02-07T14:15:46.943Z,11.70
2024-02-07T14:18:16.372Z,11.70
2024-02-07T14:20:44.356Z,11.60
2024-02-07T14:23:13.149Z,11.70
2024-02-07T14:25:41.205Z,11.70
2024-02-07T14:28:09.578Z,11.60
2024-02-07T14:30:38.759Z,11.50
2024-02-07T14:33:08.669Z,11.40
2024-02-07T14:35:38.175Z,11.40
2024-02-07T14:38:06.247Z,11.40
2024-02-07T14:40:34.159Z,11.40
2024-02-07T14:43:02.069Z,11.40
2024-02-07T14:45:30.365Z,11.40
2024-02-07T14:48:01.781Z,11.40
2024-02-07T14:50:32.773Z,11.40
2024-02-07T14:53:02.141Z,11.40
2024-02-07T14:55:30.148Z,11.50
2024-02-07T14:57:58.009Z,11.40
2024-02-07T15:00:25.854Z,11.30
2024-02-07T15:02:55.496Z,11.20
2024-02-07T15:05:24.078Z,11.10
2024-02-07T15:07:52.261Z,11.00
2024-02-07T15:10:21.657Z,11.00
2024-02-07T15:12:49.659Z,11.00
2024-02-07T15:15:17.557Z,11.00
2024-02-07T15:17:46.450Z,11.00
2024-02-07T15:20:14.414Z,10.90
2024-02-07T15:22:42.397Z,10.90
2024-02-07T15:25:11.003Z,10.80
2024-02-07T15:27:43.577Z,10.80
2024-02-07T15:30:14.021Z,10.80
2024-02-07T15:32:42.245Z,10.70
2024-02-07T15:35:13.332Z,10.80
2024-02-07T15:37:42.052Z,10.80
2024-02-07T15:40:10.849Z,10.80
2024-02-07T15:42:40.100Z,10.80
2024-02-07T15:45:10.993Z,10.70
2024-02-07T15:47:38.890Z,10.80
2024-02-07T15:50:07.876Z,10.70
2024-02-07T15:52:37.063Z,10.70
2024-02-07T15:55:05.269Z,10.60
2024-02-07T15:57:33.182Z,10.50
2024-02-07T16:00:02.445Z,10.40
2024-02-07T16:02:30.469Z,10.20
2024-02-07T16:04:58.555Z,10.00
2024-02-07T16:07:26.776Z,9.80
2024-02-07T16:09:54.896Z,9.70
2024-02-07T16:12:22.780Z,9.60
2024-02-07T16:14:50.824Z,9.50
2024-02-07T16:17:20.081Z,9.40
2024-02-07T16:19:48.014Z,9.30
2024-02-07T16:22:15.982Z,9.20
2024-02-07T16:24:43.845Z,9.20
2024-02-07T16:27:11.782Z,9.10
2024-02-07T16:29:39.648Z,9.10
2024-02-07T16:32:07.719Z,9.00
2024-02-07T16:34:37.015Z,9.00
2024-02-07T16:37:07.965Z,9.00
2024-02-07T16:39:39.425Z,8.90
2024-02-07T16:42:07.979Z,8.80
2024-02-07T16:44:35.890Z,8.80
2024-02-07T16:47:03.994Z,8.80
2024-02-07T16:49:32.897Z,8.80
2024-02-07T16:52:02.338Z,8.70
2024-02-07T16:54:30.269Z,8.70
2024-02-07T16:56:58.307Z,8.70
2024-02-07T16:59:26.503Z,8.70
2024-02-07T17:01:54.910Z,8.70
2024-02-07T17:04:22.988Z,8.70
2024-02-07T17:06:55.004Z,8.60
2024-02-07T17:09:24.374Z,8.60
2024-02-07T17:11:52.230Z,8.60
2024-02-07T17:14:20.156Z,8.60
2024-02-07T17:16:48.039Z,8.50
2024-02-07T17:19:16.892Z,8.50
2024-02-07T17:21:44.864Z,8.50
2024-02-07T17:24:12.894Z,8.50
2024-02-07T17:26:42.579Z,8.50
2024-02-07T17:29:10.727Z,8.50
2024-02-07T17:31:43.019Z,8.60
2024-02-07T17:34:12.628Z,8.60
2024-02-07T17:36:41.820Z,8.60
2024-02-07T17:39:09.691Z,8.60
2024-02-07T17:41:37.576Z,8.70
2024-02-07T17:44:07.389Z,8.70
2024-02-07T17:46:35.563Z,8.70
2024-02-07T17:49:03.537Z,8.70
2024-02-07T17:51:31.476Z,8.70
2024-02-07T17:53:59.397Z,8.70
2024-02-07T17:56:27.321Z,8.70
2024-02-07T17:58:55.286Z,8.70
2024-02-07T18:01:25.269Z,8.70
2024-02-07T18:03:53.268Z,8.70
2024-02-07T18:06:21.169Z,8.70
2024-02-07T18:08:49.120Z,8.70
2024-02-07T18:11:19.527Z,8.60
2024-02-07T18:13:47.467Z,8.50
2024-02-07T18:16:18.032Z,8.60
2024-02-07T18:18:47.373Z,8.50
2024-02-07T18:21:15.301Z,8.50
2024-02-07T18:23:43.723Z,8.50
2024-02-07T18:26:12.210Z,8.50
2024-02-07T18:28:40.876Z,8.50
2024-02-07T18:31:11.569Z,8.50
2024-02-07T18:33:39.547Z,8.50
2024-02-07T18:36:11.094Z,8.50
2024-02-07T18:38:39.573Z,8.60
2024-02-07T18:41:07.867Z,8.50
2024-02-07T18:43:35.906Z,8.50
2024-02-07T18:46:03.856Z,8.50
2024-02-07T18:48:31.809Z,8.50
2024-02-07T18:50:59.829Z,8.50
2024-02-07T18:53:29.281Z,8.60
2024-02-07T18:55:57.427Z,8.50
2024-02-07T18:58:25.585Z,8.50
2024-02-07T19:00:53.881Z,8.50
2024-02-07T19:03:21.862Z,8.50
2024-02-07T19:05:49.901Z,8.60
2024-02-07T19:08:17.887Z,8.60
2024-02-07T19:10:47.491Z,8.70
2024-02-07T19:13:15.384Z,8.60
2024-02-07T19:15:43.477Z,8.70
2024-02-07T19:18:11.455Z,8.60
2024-02-07T19:20:42.886Z,8.70
2024-02-07T19:23:11.331Z,8.70
2024-02-07T19:25:39.276Z,8.70
2024-02-07T19:28:08.671Z,8.70
2024-02-07T19:30:36.601Z,8.70
2024-02-07T19:33:04.951Z,8.80
2024-02-07T19:35:32.928Z,8.80
2024-02-07T19:38:01.047Z,8.70
2024-02-07T19:40:29.096Z,8.70
2024-02-07T19:42:57.044Z,8.80
2024-02-07T19:45:26.290Z,8.80
2024-02-07T19:47:55.410Z,8.80
2024-02-07T19:50:23.584Z,8.80
2024-02-07T19:52:51.589Z,8.90
2024-02-07T19:55:19.569Z,9.00
2024-02-07T19:57:47.520Z,9.00
2024-02-07T20:00:16.044Z,9.10
2024-02-07T20:02:46.475Z,9.10
2024-02-07T20:05:16.036Z,9.10
2024-02-07T20:07:44.313Z,9.20
2024-02-07T20:10:12.421Z,9.20
2024-02-07T20:12:40.473Z,9.10
2024-02-07T20:15:09.324Z,9.00
2024-02-07T20:17:39.016Z,9.00
2024-02-07T20:20:09.856Z,9.00
2024-02-07T20:22:37.827Z,9.00
2024-02-07T20:25:10.545Z,8.90
2024-02-07T20:27:38.460Z,8.90
2024-02-07T20:30:07.273Z,8.90
2024-02-07T20:32:35.294Z,8.90
2024-02-07T20:35:03.528Z,8.90
2024-02-07T20:37:33.196Z,9.00
2024-02-07T20:40:01.218Z,9.00
2024-02-07T20:42:31.708Z,9.00
2024-02-07T20:44:59.770Z,9.00
2024-02-07T20:47:28.165Z,9.10
2024-02-07T20:49:56.279Z,9.20
2024-02-07T20:52:24.306Z,9.20
2024-02-07T20:54:53.635Z,9.20
2024-02-07T20:57:21.692Z,9.30
2024-02-07T20:59:49.669Z,9.30
2024-02-07T21:02:17.648Z,9.30
2024-02-07T21:04:45.556Z,9.30
2024-02-07T21:07:13.652Z,9.40
2024-02-07T21:09:41.551Z,9.30
2024-02-07T21:12:10.842Z,9.30
2024-02-07T21:14:38.769Z,9.20
2024-02-07T21:17:06.996Z,9.20
2024-02-07T21:19:36.180Z,9.20
2024-02-07T21:22:06.199Z,9.20
2024-02-07T21:24:34.917Z,9.20
2024-02-07T21:27:03.665Z,9.30
2024-02-07T21:29:33.383Z,9.30
2024-02-07T21:32:01.745Z,9.30
2024-02-07T21:34:29.837Z,9.30
2024-02-07T21:36:57.740Z,9.30
2024-02-07T21:39:25.620Z,9.30
2024-02-07T21:41:53.951Z,9.30
2024-02-07T21:44:22.156Z,9.30
2024-02-07T21:46:51.372Z,9.30
2024-02-07T21:49:19.463Z,9.20
2024-02-07T21:51:47.462Z,9.10
2024-02-07T21:54:15.366Z,9.10
2024-02-07T21:56:43.287Z,9.00
2024-02-07T21:59:11.690Z,8.90
2024-02-07T22:01:40.721Z,8.80
2024-02-07T22:04:10.043Z,8.80
2024-02-07T22:06:41.846Z,8.80
2024-02-07T22:09:09.864Z,8.80
2024-02-07T22:11:37.826Z,8.70
2024-02-07T22:14:05.844Z,8.70
2024-02-07T22:16:34.204Z,8.70
2024-02-07T22:19:02.143Z,8.80
2024-02-07T22:21:31.576Z,8.70
2024-02-07T22:23:59.566Z,8.70
2024-02-07T22:26:27.546Z,8.70
2024-02-07T22:28:55.509Z,8.80
2024-02-07T22:31:24.095Z,8.80
2024-02-07T22:33:52.243Z,8.80
2024-02-07T22:36:20.905Z,8.90
2024-02-07T22:38:50.139Z,8.90
2024-02-07T22:41:18.055Z,8.90
2024-02-07T22:43:46.005Z,8.90
2024-02-07T22:46:13.906Z,8.90
2024-02-07T22:48:41.908Z,8.90
2024-02-07T22:51:09.837Z,8.90
2024-02-07T22:53:37.823Z,9.00
2024-02-07T22:56:11.137Z,9.00
2024-02-07T22:58:39.188Z,9.00
2024-02-07T23:01:07.115Z,9.00
2024-02-07T23:03:38.329Z,9.00
2024-02-07T23:06:07.043Z,9.10
2024-02-07T23:08:34.996Z,9.10
2024-02-07T23:11:03.007Z,9.10
2024-02-07T23:13:32.357Z,9.20
2024-02-07T23:16:00.382Z,9.20
2024-02-07T23:18:28.287Z,9.20
2024-02-07T23:20:56.186Z,9.20
2024-02-07T23:23:24.148Z,9.30
2024-02-07T23:25:51.094Z,9.20
2024-02-07T23:28:18.939Z,9.30
2024-02-07T23:30:48.165Z,9.30
2024-02-07T23:33:20.830Z,9.40
2024-02-07T23:35:48.762Z,9.40
2024-02-07T23:38:16.686Z,9.50
2024-02-07T23:40:44.713Z,9.50
2024-02-07T23:43:12.649Z,9.50
2024-02-07T23:45:40.544Z,9.50
2024-02-07T23:48:10.204Z,9.60
2024-02-07T23:50:38.241Z,9.60
2024-02-07T23:53:06.348Z,9.60
2024-02-07T23:55:34.393Z,9.60
2024-02-07T23:58:02.272Z,9.60
